sensor_id;sensor_type;location;lat;lon;timestamp;pressure;altitude;pressure_sealevel;temperature;humidity
40205;BME280;26963;42.666;23.366;2023-02-17T00:00:30;95871.78;;;4.43;49.62
40205;BME280;26963;42.666;23.366;2023-02-17T00:02:57;95806.66;;;4.11;49.30
40205;BME280;26963;42.666;23.366;2023-02-17T00:05:23;95837.56;;;4.41;48.88
40205;BME280;26963;42.666;23.366;2023-02-17T00:07:49;95845.16;;;4.49;48.90
40205;BME280;26963;42.666;23.366;2023-02-17T00:10:14;95808.75;;;4.33;48.93
40205;BME280;26963;42.666;23.366;2023-02-17T00:12:40;95853.78;;;4.68;48.90
40205;BME280;26963;42.666;23.366;2023-02-17T00:15:06;95802.06;;;4.42;48.62
40205;BME280;26963;42.666;23.366;2023-02-17T00:17:32;95869.00;;;4.85;48.49
40205;BME280;26963;42.666;23.366;2023-02-17T00:19:57;95856.75;;;4.84;48.49
40205;BME280;26963;42.666;23.366;2023-02-17T00:22:23;95863.22;;;4.88;48.29
40205;BME280;26963;42.666;23.366;2023-02-17T00:24:48;95855.72;;;4.85;48.46
40205;BME280;26963;42.666;23.366;2023-02-17T00:27:14;95821.53;;;4.71;48.49
40205;BME280;26963;42.666;23.366;2023-02-17T00:29:40;95796.19;;;4.52;48.33
40205;BME280;26963;42.666;23.366;2023-02-17T00:32:05;95721.03;;;4.05;48.42
40205;BME280;26963;42.666;23.366;2023-02-17T00:34:31;95829.22;;;4.85;48.17
40205;BME280;26963;42.666;23.366;2023-02-17T00:36:57;95778.09;;;4.49;48.40
40205;BME280;26963;42.666;23.366;2023-02-17T00:39:23;95788.34;;;4.57;48.02
40205;BME280;26963;42.666;23.366;2023-02-17T00:41:48;95834.63;;;4.90;47.71
40205;BME280;26963;42.666;23.366;2023-02-17T00:57:25;95815.75;;;5.27;46.51
40205;BME280;26963;42.666;23.366;2023-02-17T00:59:51;95816.59;;;5.16;47.11
40205;BME280;26963;42.666;23.366;2023-02-17T01:02:17;95766.66;;;4.72;47.20
40205;BME280;26963;42.666;23.366;2023-02-17T01:04:42;95761.38;;;4.60;46.99
40205;BME280;26963;42.666;23.366;2023-02-17T01:07:08;95840.16;;;5.00;47.12
40205;BME280;26963;42.666;23.366;2023-02-17T01:09:33;95750.81;;;4.36;47.52
40205;BME280;26963;42.666;23.366;2023-02-17T01:11:59;95812.75;;;4.71;47.51
40205;BME280;26963;42.666;23.366;2023-02-17T01:14:25;95816.69;;;4.68;47.65
40205;BME280;26963;42.666;23.366;2023-02-17T01:16:50;95814.03;;;4.56;48.12
40205;BME280;26963;42.666;23.366;2023-02-17T01:19:17;95826.00;;;4.71;48.23
40205;BME280;26963;42.666;23.366;2023-02-17T01:21:43;95809.09;;;4.60;48.39
40205;BME280;26963;42.666;23.366;2023-02-17T01:24:10;95789.94;;;4.58;48.70
40205;BME280;26963;42.666;23.366;2023-02-17T01:26:37;95829.09;;;4.80;48.53
40205;BME280;26963;42.666;23.366;2023-02-17T01:29:04;95822.44;;;4.77;48.34
40205;BME280;26963;42.666;23.366;2023-02-17T01:31:31;95687.28;;;3.89;48.00
40205;BME280;26963;42.666;23.366;2023-02-17T01:33:58;95753.22;;;4.38;48.11
40205;BME280;26963;42.666;23.366;2023-02-17T01:36:24;95793.09;;;4.55;48.23
40205;BME280;26963;42.666;23.366;2023-02-17T01:38:50;95806.19;;;4.62;48.24
40205;BME280;26963;42.666;23.366;2023-02-17T01:41:17;95738.84;;;4.22;48.11
40205;BME280;26963;42.666;23.366;2023-02-17T01:44:13;95807.94;;;4.68;48.18
40205;BME280;26963;42.666;23.366;2023-02-17T01:46:42;95810.13;;;4.59;47.87
40205;BME280;26963;42.666;23.366;2023-02-17T01:51:40;95815.19;;;4.37;47.98
40205;BME280;26963;42.666;23.366;2023-02-17T01:54:29;95821.06;;;4.03;48.68
40205;BME280;26963;42.666;23.366;2023-02-17T01:56:58;95813.16;;;3.61;49.72
40205;BME280;26963;42.666;23.366;2023-02-17T01:59:27;95754.88;;;2.76;51.01
40205;BME280;26963;42.666;23.366;2023-02-17T02:01:57;95818.13;;;2.90;51.95
40205;BME280;26963;42.666;23.366;2023-02-17T02:04:25;95811.88;;;2.66;53.02
40205;BME280;26963;42.666;23.366;2023-02-17T02:06:53;95747.28;;;2.06;52.85
40205;BME280;26963;42.666;23.366;2023-02-17T02:09:26;95780.81;;;2.24;54.08
40205;BME280;26963;42.666;23.366;2023-02-17T02:11:54;95816.66;;;2.38;54.13
40205;BME280;26963;42.666;23.366;2023-02-17T02:14:20;95829.16;;;2.50;53.88
40205;BME280;26963;42.666;23.366;2023-02-17T02:22:30;95567.22;;;1.29;53.22
40205;BME280;26963;42.666;23.366;2023-02-17T02:31:07;95821.03;;;3.19;52.65
40205;BME280;26963;42.666;23.366;2023-02-17T02:34:06;95803.47;;;3.24;52.14
40205;BME280;26963;42.666;23.366;2023-02-17T02:36:47;95802.66;;;3.24;52.40
40205;BME280;26963;42.666;23.366;2023-02-17T02:39:19;95815.13;;;3.35;52.25
40205;BME280;26963;42.666;23.366;2023-02-17T02:41:57;95819.16;;;3.38;51.72
40205;BME280;26963;42.666;23.366;2023-02-17T02:44:24;95790.81;;;3.26;51.82
40205;BME280;26963;42.666;23.366;2023-02-17T02:47:04;95816.63;;;3.43;52.07
40205;BME280;26963;42.666;23.366;2023-02-17T02:49:32;95823.56;;;3.44;51.57
40205;BME280;26963;42.666;23.366;2023-02-17T02:52:10;95800.22;;;3.53;51.87
40205;BME280;26963;42.666;23.366;2023-02-17T02:57:36;95763.59;;;3.26;50.96
40205;BME280;26963;42.666;23.366;2023-02-17T03:03:31;95816.09;;;3.53;50.72
40205;BME280;26963;42.666;23.366;2023-02-17T03:09:10;95761.97;;;3.25;50.94
40205;BME280;26963;42.666;23.366;2023-02-17T03:11:38;95792.75;;;3.50;51.03
40205;BME280;26963;42.666;23.366;2023-02-17T03:14:07;95823.63;;;3.68;50.94
40205;BME280;26963;42.666;23.366;2023-02-17T03:16:34;95795.66;;;3.60;50.63
40205;BME280;26963;42.666;23.366;2023-02-17T03:19:01;95801.50;;;3.62;50.75
40205;BME280;26963;42.666;23.366;2023-02-17T03:21:34;95811.31;;;3.73;50.81
40205;BME280;26963;42.666;23.366;2023-02-17T03:24:01;95813.97;;;3.73;50.91
40205;BME280;26963;42.666;23.366;2023-02-17T03:26:27;95769.84;;;3.43;50.51
40205;BME280;26963;42.666;23.366;2023-02-17T03:28:52;95827.56;;;3.77;50.56
40205;BME280;26963;42.666;23.366;2023-02-17T03:31:18;95816.50;;;3.68;50.39
40205;BME280;26963;42.666;23.366;2023-02-17T03:33:44;95820.75;;;3.69;50.77
40205;BME280;26963;42.666;23.366;2023-02-17T03:36:09;95820.16;;;3.67;50.81
40205;BME280;26963;42.666;23.366;2023-02-17T03:38:35;95821.56;;;3.70;50.80
40205;BME280;26963;42.666;23.366;2023-02-17T03:41:00;95745.19;;;3.31;50.54
40205;BME280;26963;42.666;23.366;2023-02-17T03:43:26;95698.88;;;2.98;50.58
40205;BME280;26963;42.666;23.366;2023-02-17T03:45:51;95744.25;;;3.25;50.56
40205;BME280;26963;42.666;23.366;2023-02-17T03:48:17;95803.25;;;3.68;50.88
40205;BME280;26963;42.666;23.366;2023-02-17T03:50:42;95803.19;;;3.75;50.65
40205;BME280;26963;42.666;23.366;2023-02-17T03:53:10;95803.97;;;3.75;50.52
40205;BME280;26963;42.666;23.366;2023-02-17T03:55:35;95802.59;;;3.73;50.51
40205;BME280;26963;42.666;23.366;2023-02-17T03:58:01;95674.97;;;2.93;50.77
40205;BME280;26963;42.666;23.366;2023-02-17T04:00:26;95736.47;;;3.42;50.66
40205;BME280;26963;42.666;23.366;2023-02-17T04:02:52;95734.50;;;3.38;50.51
40205;BME280;26963;42.666;23.366;2023-02-17T04:05:17;95787.50;;;3.73;50.55
40205;BME280;26963;42.666;23.366;2023-02-17T04:07:43;95800.84;;;3.79;50.80
40205;BME280;26963;42.666;23.366;2023-02-17T04:10:08;95785.31;;;3.70;50.52
40205;BME280;26963;42.666;23.366;2023-02-17T04:12:34;95804.09;;;3.81;50.57
40205;BME280;26963;42.666;23.366;2023-02-17T04:14:59;95821.84;;;3.80;50.55
40205;BME280;26963;42.666;23.366;2023-02-17T04:17:25;95806.38;;;3.77;50.19
40205;BME280;26963;42.666;23.366;2023-02-17T04:19:50;95783.00;;;3.62;50.59
40205;BME280;26963;42.666;23.366;2023-02-17T04:22:16;95802.00;;;3.71;50.62
40205;BME280;26963;42.666;23.366;2023-02-17T04:24:41;95800.06;;;3.66;51.15
40205;BME280;26963;42.666;23.366;2023-02-17T04:27:07;95824.44;;;3.68;50.64
40205;BME280;26963;42.666;23.366;2023-02-17T04:29:33;95812.34;;;3.61;51.26
40205;BME280;26963;42.666;23.366;2023-02-17T04:31:59;95790.81;;;3.57;51.01
40205;BME280;26963;42.666;23.366;2023-02-17T04:34:24;95828.38;;;3.78;51.23
40205;BME280;26963;42.666;23.366;2023-02-17T04:36:50;95779.31;;;3.63;51.08
40205;BME280;26963;42.666;23.366;2023-02-17T04:39:15;95806.03;;;3.73;51.16
40205;BME280;26963;42.666;23.366;2023-02-17T04:41:41;95824.00;;;3.83;51.07
40205;BME280;26963;42.666;23.366;2023-02-17T04:44:06;95822.16;;;3.84;51.43
40205;BME280;26963;42.666;23.366;2023-02-17T04:46:32;95814.81;;;3.86;50.95
40205;BME280;26963;42.666;23.366;2023-02-17T04:48:57;95763.19;;;3.53;50.55
40205;BME280;26963;42.666;23.366;2023-02-17T04:51:23;95704.88;;;3.05;51.25
40205;BME280;26963;42.666;23.366;2023-02-17T04:53:48;95816.06;;;3.83;50.99
40205;BME280;26963;42.666;23.366;2023-02-17T04:56:14;95809.16;;;3.82;51.37
40205;BME280;26963;42.666;23.366;2023-02-17T04:58:40;95694.56;;;3.16;51.10
40205;BME280;26963;42.666;23.366;2023-02-17T05:01:05;95799.41;;;3.83;51.28
40205;BME280;26963;42.666;23.366;2023-02-17T05:03:31;95795.00;;;3.88;51.37
40205;BME280;26963;42.666;23.366;2023-02-17T05:05:56;95803.06;;;3.82;50.69
40205;BME280;26963;42.666;23.366;2023-02-17T05:08:22;95832.91;;;3.89;50.03
40205;BME280;26963;42.666;23.366;2023-02-17T05:10:50;95841.81;;;3.76;50.73
40205;BME280;26963;42.666;23.366;2023-02-17T05:13:16;95785.00;;;3.36;50.91
40205;BME280;26963;42.666;23.366;2023-02-17T05:15:43;95825.16;;;3.75;50.72
40205;BME280;26963;42.666;23.366;2023-02-17T05:18:09;95819.13;;;3.68;50.59
40205;BME280;26963;42.666;23.366;2023-02-17T05:20:34;95837.66;;;3.68;51.26
40205;BME280;26963;42.666;23.366;2023-02-17T05:23:00;95775.41;;;3.23;50.63
40205;BME280;26963;42.666;23.366;2023-02-17T05:25:26;95790.69;;;3.21;51.64
40205;BME280;26963;42.666;23.366;2023-02-17T05:27:51;95844.19;;;3.54;51.55
40205;BME280;26963;42.666;23.366;2023-02-17T05:30:17;95767.16;;;3.01;52.08
40205;BME280;26963;42.666;23.366;2023-02-17T05:32:42;95840.94;;;3.52;52.29
40205;BME280;26963;42.666;23.366;2023-02-17T05:35:08;95833.59;;;3.54;51.97
40205;BME280;26963;42.666;23.366;2023-02-17T05:37:33;95779.88;;;3.23;51.57
40205;BME280;26963;42.666;23.366;2023-02-17T05:39:59;95794.78;;;3.36;51.48
40205;BME280;26963;42.666;23.366;2023-02-17T05:42:24;95860.41;;;3.88;51.51
40205;BME280;26963;42.666;23.366;2023-02-17T05:44:54;95846.44;;;3.81;51.05
40205;BME280;26963;42.666;23.366;2023-02-17T05:47:21;95841.88;;;3.88;51.27
40205;BME280;26963;42.666;23.366;2023-02-17T05:49:46;95784.34;;;3.53;51.59
40205;BME280;26963;42.666;23.366;2023-02-17T05:52:12;95869.44;;;4.11;51.17
40205;BME280;26963;42.666;23.366;2023-02-17T05:54:37;95864.25;;;4.16;50.60
40205;BME280;26963;42.666;23.366;2023-02-17T05:57:03;95872.88;;;4.23;50.27
40205;BME280;26963;42.666;23.366;2023-02-17T05:59:28;95849.84;;;4.12;50.15
40205;BME280;26963;42.666;23.366;2023-02-17T06:01:54;95879.59;;;4.37;50.78
40205;BME280;26963;42.666;23.366;2023-02-17T06:04:20;95864.25;;;4.39;50.23
40205;BME280;26963;42.666;23.366;2023-02-17T06:06:48;95856.31;;;4.39;50.21
40205;BME280;26963;42.666;23.366;2023-02-17T06:09:13;95878.34;;;4.52;50.35
40205;BME280;26963;42.666;23.366;2023-02-17T06:11:39;95809.56;;;4.10;50.19
40205;BME280;26963;42.666;23.366;2023-02-17T06:14:04;95859.78;;;4.52;49.84
40205;BME280;26963;42.666;23.366;2023-02-17T06:16:30;95875.69;;;4.52;49.50
40205;BME280;26963;42.666;23.366;2023-02-17T06:18:56;95890.91;;;4.68;49.81
40205;BME280;26963;42.666;23.366;2023-02-17T06:21:21;95853.56;;;4.58;49.87
40205;BME280;26963;42.666;23.366;2023-02-17T06:23:47;95880.41;;;4.85;49.54
40205;BME280;26963;42.666;23.366;2023-02-17T06:26:12;95877.41;;;4.94;49.65
40205;BME280;26963;42.666;23.366;2023-02-17T06:28:38;95875.19;;;5.02;49.34
40205;BME280;26963;42.666;23.366;2023-02-17T06:31:04;95872.53;;;5.02;49.39
40205;BME280;26963;42.666;23.366;2023-02-17T06:33:29;95813.53;;;4.83;49.47
40205;BME280;26963;42.666;23.366;2023-02-17T06:35:55;95879.88;;;5.24;49.19
40205;BME280;26963;42.666;23.366;2023-02-17T06:38:21;95881.44;;;5.37;48.36
40205;BME280;26963;42.666;23.366;2023-02-17T06:40:46;95867.34;;;5.19;48.34
40205;BME280;26963;42.666;23.366;2023-02-17T06:43:11;95842.91;;;5.05;48.22
40205;BME280;26963;42.666;23.366;2023-02-17T06:45:37;95892.22;;;5.30;48.33
40205;BME280;26963;42.666;23.366;2023-02-17T06:48:03;95872.06;;;5.17;48.60
40205;BME280;26963;42.666;23.366;2023-02-17T06:50:28;95889.59;;;5.18;48.57
40205;BME280;26963;42.666;23.366;2023-02-17T06:52:54;95872.44;;;4.97;49.05
40205;BME280;26963;42.666;23.366;2023-02-17T06:55:19;95908.75;;;5.09;49.19
40205;BME280;26963;42.666;23.366;2023-02-17T06:57:45;95901.28;;;5.05;49.17
40205;BME280;26963;42.666;23.366;2023-02-17T07:00:11;95885.91;;;5.07;48.93
40205;BME280;26963;42.666;23.366;2023-02-17T07:02:37;95852.00;;;4.98;48.87
40205;BME280;26963;42.666;23.366;2023-02-17T07:05:03;95898.13;;;5.61;48.11
40205;BME280;26963;42.666;23.366;2023-02-17T07:07:29;95871.03;;;5.76;47.70
40205;BME280;26963;42.666;23.366;2023-02-17T07:09:54;95901.91;;;6.23;46.87
40205;BME280;26963;42.666;23.366;2023-02-17T07:12:20;95890.56;;;6.62;45.97
40205;BME280;26963;42.666;23.366;2023-02-17T07:14:45;95905.97;;;6.99;44.64
40205;BME280;26963;42.666;23.366;2023-02-17T07:17:11;95907.38;;;7.24;44.85
40205;BME280;26963;42.666;23.366;2023-02-17T07:19:36;95882.69;;;7.28;44.28
40205;BME280;26963;42.666;23.366;2023-02-17T07:22:03;95865.22;;;7.38;44.15
40205;BME280;26963;42.666;23.366;2023-02-17T07:24:29;95837.38;;;7.73;43.77
40205;BME280;26963;42.666;23.366;2023-02-17T07:26:55;95901.78;;;8.46;41.93
40205;BME280;26963;42.666;23.366;2023-02-17T07:29:21;95913.91;;;8.64;42.18
40205;BME280;26963;42.666;23.366;2023-02-17T07:31:47;95844.88;;;8.73;41.03
40205;BME280;26963;42.666;23.366;2023-02-17T07:34:12;95896.53;;;9.53;40.68
40205;BME280;26963;42.666;23.366;2023-02-17T07:36:38;95858.41;;;9.73;39.78
40205;BME280;26963;42.666;23.366;2023-02-17T07:39:04;95879.63;;;10.41;38.58
40205;BME280;26963;42.666;23.366;2023-02-17T07:41:30;95892.16;;;10.98;37.32
40205;BME280;26963;42.666;23.366;2023-02-17T07:43:58;95917.16;;;11.64;36.22
40205;BME280;26963;42.666;23.366;2023-02-17T07:46:24;95794.56;;;11.30;35.03
40205;BME280;26963;42.666;23.366;2023-02-17T07:48:50;95897.50;;;12.68;33.95
40205;BME280;26963;42.666;23.366;2023-02-17T07:51:19;95892.28;;;13.36;32.83
40205;BME280;26963;42.666;23.366;2023-02-17T07:53:45;95878.47;;;14.10;32.27
40205;BME280;26963;42.666;23.366;2023-02-17T07:56:12;95883.59;;;14.97;30.24
40205;BME280;26963;42.666;23.366;2023-02-17T07:58:40;95712.28;;;14.63;29.06
40205;BME280;26963;42.666;23.366;2023-02-17T08:01:14;95858.72;;;16.34;28.04
40205;BME280;26963;42.666;23.366;2023-02-17T08:03:40;95874.44;;;17.00;27.13
40205;BME280;26963;42.666;23.366;2023-02-17T08:06:11;95885.47;;;17.53;26.43
40205;BME280;26963;42.666;23.366;2023-02-17T08:08:37;95884.91;;;17.73;25.70
40205;BME280;26963;42.666;23.366;2023-02-17T08:11:21;95886.59;;;18.45;25.36
40205;BME280;26963;42.666;23.366;2023-02-17T08:14:06;95859.75;;;18.87;24.50
40205;BME280;26963;42.666;23.366;2023-02-17T08:16:31;95716.28;;;18.17;24.17
40205;BME280;26963;42.666;23.366;2023-02-17T08:18:57;95881.22;;;19.27;23.69
40205;BME280;26963;42.666;23.366;2023-02-17T08:21:24;95891.69;;;18.64;24.24
40205;BME280;26963;42.666;23.366;2023-02-17T08:23:49;95867.00;;;18.39;24.72
40205;BME280;26963;42.666;23.366;2023-02-17T08:26:15;95836.19;;;17.73;25.01
40205;BME280;26963;42.666;23.366;2023-02-17T08:28:43;95884.06;;;17.24;25.91
40205;BME280;26963;42.666;23.366;2023-02-17T08:31:21;95840.78;;;16.61;27.13
40205;BME280;26963;42.666;23.366;2023-02-17T08:33:47;95869.63;;;16.74;26.79
40205;BME280;26963;42.666;23.366;2023-02-17T08:36:12;95866.31;;;16.32;26.85
40205;BME280;26963;42.666;23.366;2023-02-17T08:38:39;95887.78;;;16.14;27.85
40205;BME280;26963;42.666;23.366;2023-02-17T08:41:17;95814.50;;;15.71;27.50
40205;BME280;26963;42.666;23.366;2023-02-17T08:43:43;95808.41;;;15.65;27.69
40205;BME280;26963;42.666;23.366;2023-02-17T08:46:10;95875.16;;;16.10;27.58
40205;BME280;26963;42.666;23.366;2023-02-17T08:48:36;95867.50;;;16.03;27.73
40205;BME280;26963;42.666;23.366;2023-02-17T08:51:02;95823.88;;;15.73;28.25
40205;BME280;26963;42.666;23.366;2023-02-17T08:53:28;95871.06;;;16.12;27.83
40205;BME280;26963;42.666;23.366;2023-02-17T08:55:54;95870.63;;;16.33;27.44
40205;BME280;26963;42.666;23.366;2023-02-17T08:58:19;95828.19;;;16.11;27.16
40205;BME280;26963;42.666;23.366;2023-02-17T09:00:45;95865.47;;;16.45;27.06
40205;BME280;26963;42.666;23.366;2023-02-17T09:03:10;95856.19;;;16.15;27.21
40205;BME280;26963;42.666;23.366;2023-02-17T09:05:36;95870.63;;;15.96;27.41
40205;BME280;26963;42.666;23.366;2023-02-17T09:08:05;95861.19;;;16.08;27.43
40205;BME280;26963;42.666;23.366;2023-02-17T09:10:30;95873.56;;;16.23;27.25
40205;BME280;26963;42.666;23.366;2023-02-17T09:12:56;95850.41;;;16.08;27.27
40205;BME280;26963;42.666;23.366;2023-02-17T09:15:21;95772.22;;;15.15;27.30
40205;BME280;26963;42.666;23.366;2023-02-17T09:17:47;95868.03;;;15.77;28.00
40205;BME280;26963;42.666;23.366;2023-02-17T09:20:12;95858.84;;;15.78;28.03
40205;BME280;26963;42.666;23.366;2023-02-17T09:22:38;95837.41;;;15.96;27.73
40205;BME280;26963;42.666;23.366;2023-02-17T09:25:08;95854.00;;;16.03;27.53
40205;BME280;26963;42.666;23.366;2023-02-17T09:27:37;95822.31;;;15.30;27.57
40205;BME280;26963;42.666;23.366;2023-02-17T09:30:03;95858.47;;;15.15;28.36
40205;BME280;26963;42.666;23.366;2023-02-17T09:32:29;95767.44;;;14.51;28.79
40205;BME280;26963;42.666;23.366;2023-02-17T09:34:54;95859.84;;;14.99;29.38
40205;BME280;26963;42.666;23.366;2023-02-17T09:37:20;95859.66;;;15.09;29.21
40205;BME280;26963;42.666;23.366;2023-02-17T09:39:46;95860.38;;;15.29;29.22
40205;BME280;26963;42.666;23.366;2023-02-17T09:42:23;95837.56;;;15.49;28.62
40205;BME280;26963;42.666;23.366;2023-02-17T09:44:54;95853.38;;;15.42;28.60
40205;BME280;26963;42.666;23.366;2023-02-17T09:47:37;95859.34;;;15.39;28.74
40205;BME280;26963;42.666;23.366;2023-02-17T09:50:13;95845.28;;;15.28;28.50
40205;BME280;26963;42.666;23.366;2023-02-17T09:52:46;95852.09;;;15.39;28.75
40205;BME280;26963;42.666;23.366;2023-02-17T09:55:26;95832.28;;;15.58;25.03
40205;BME280;26963;42.666;23.366;2023-02-17T10:00:53;95841.75;;;16.20;24.19
40205;BME280;26963;42.666;23.366;2023-02-17T10:08:23;95842.97;;;17.04;22.88
40205;BME280;26963;42.666;23.366;2023-02-17T10:11:18;95824.25;;;17.17;22.79
40205;BME280;26963;42.666;23.366;2023-02-17T10:13:46;95813.44;;;17.17;22.53
40205;BME280;26963;42.666;23.366;2023-02-17T10:16:21;95811.53;;;17.26;21.86
40205;BME280;26963;42.666;23.366;2023-02-17T10:18:54;95823.88;;;17.09;22.04
40205;BME280;26963;42.666;23.366;2023-02-17T10:21:50;95807.50;;;17.06;22.10
40205;BME280;26963;42.666;23.366;2023-02-17T10:24:12;95821.50;;;17.08;22.32
40205;BME280;26963;42.666;23.366;2023-02-17T10:35:12;95802.47;;;17.22;21.81
40205;BME280;26963;42.666;23.366;2023-02-17T10:37:47;95793.16;;;17.46;22.49
40205;BME280;26963;42.666;23.366;2023-02-17T10:40:22;95786.34;;;17.57;21.69
40205;BME280;26963;42.666;23.366;2023-02-17T10:42:58;95801.47;;;17.75;21.81
40205;BME280;26963;42.666;23.366;2023-02-17T10:45:34;95768.53;;;17.73;21.79
40205;BME280;26963;42.666;23.366;2023-02-17T10:48:12;95784.78;;;18.08;21.83
40205;BME280;26963;42.666;23.366;2023-02-17T10:50:41;95763.59;;;18.11;20.83
40205;BME280;26963;42.666;23.366;2023-02-17T10:53:16;95761.84;;;18.15;20.99
40205;BME280;26963;42.666;23.366;2023-02-17T10:55:53;95772.50;;;18.37;21.09
40205;BME280;26963;42.666;23.366;2023-02-17T11:01:11;95768.22;;;18.10;20.47
40205;BME280;26963;42.666;23.366;2023-02-17T11:03:40;95697.66;;;17.63;20.74
40205;BME280;26963;42.666;23.366;2023-02-17T11:06:17;95757.84;;;17.86;20.78
40205;BME280;26963;42.666;23.366;2023-02-17T11:08:44;95783.94;;;17.64;20.98
40205;BME280;26963;42.666;23.366;2023-02-17T11:11:19;95758.13;;;17.58;21.90
40205;BME280;26963;42.666;23.366;2023-02-17T11:16:34;95775.84;;;17.73;22.41
40205;BME280;26963;42.666;23.366;2023-02-17T11:19:00;95742.25;;;17.74;21.27
40205;BME280;26963;42.666;23.366;2023-02-17T11:21:27;95762.31;;;17.82;21.36
40205;BME280;26963;42.666;23.366;2023-02-17T11:23:57;95758.50;;;17.83;22.20
40205;BME280;26963;42.666;23.366;2023-02-17T11:26:26;95757.22;;;17.89;22.03
40205;BME280;26963;42.666;23.366;2023-02-17T11:28:52;95774.72;;;17.91;21.86
40205;BME280;26963;42.666;23.366;2023-02-17T11:31:24;95746.38;;;17.80;21.71
40205;BME280;26963;42.666;23.366;2023-02-17T11:33:50;95759.78;;;17.94;22.12
40205;BME280;26963;42.666;23.366;2023-02-17T11:36:28;95717.41;;;17.81;21.68
40205;BME280;26963;42.666;23.366;2023-02-17T11:38:54;95719.66;;;17.96;21.89
40205;BME280;26963;42.666;23.366;2023-02-17T11:41:20;95737.47;;;18.15;21.95
40205;BME280;26963;42.666;23.366;2023-02-17T11:43:54;95726.28;;;18.25;21.68
40205;BME280;26963;42.666;23.366;2023-02-17T11:46:24;95747.31;;;18.37;21.65
40205;BME280;26963;42.666;23.366;2023-02-17T11:49:03;95748.28;;;18.32;21.32
40205;BME280;26963;42.666;23.366;2023-02-17T11:51:57;95703.22;;;18.10;21.88
40205;BME280;26963;42.666;23.366;2023-02-17T12:00:40;95735.41;;;18.20;21.28
40205;BME280;26963;42.666;23.366;2023-02-17T12:16:39;95725.66;;;18.28;22.31
40205;BME280;26963;42.666;23.366;2023-02-17T12:24:43;95696.56;;;17.64;21.65
40205;BME280;26963;42.666;23.366;2023-02-17T12:27:37;95698.94;;;17.65;22.44
40205;BME280;26963;42.666;23.366;2023-02-17T12:35:50;95697.34;;;17.29;22.31
40205;BME280;26963;42.666;23.366;2023-02-17T12:38:33;95667.84;;;17.10;22.72
40205;BME280;26963;42.666;23.366;2023-02-17T12:41:05;95626.13;;;16.76;22.96
40205;BME280;26963;42.666;23.366;2023-02-17T12:43:41;95663.44;;;17.14;22.70
40205;BME280;26963;42.666;23.366;2023-02-17T12:46:10;95684.59;;;17.21;22.33
40205;BME280;26963;42.666;23.366;2023-02-17T12:48:56;95628.69;;;16.90;22.99
40205;BME280;26963;42.666;23.366;2023-02-17T12:51:51;95679.19;;;17.21;22.75
40205;BME280;26963;42.666;23.366;2023-02-17T12:55:20;95668.63;;;16.93;22.74
40205;BME280;26963;42.666;23.366;2023-02-17T12:57:35;95644.97;;;16.50;22.75
40205;BME280;26963;42.666;23.366;2023-02-17T13:00:28;95643.38;;;16.49;23.19
40205;BME280;26963;42.666;23.366;2023-02-17T13:02:58;95613.13;;;16.29;23.45
40205;BME280;26963;42.666;23.366;2023-02-17T13:07:59;95663.19;;;16.44;23.48
40205;BME280;26963;42.666;23.366;2023-02-17T13:10:34;95657.56;;;16.23;23.59
40205;BME280;26963;42.666;23.366;2023-02-17T13:13:11;95676.63;;;16.26;23.83
40205;BME280;26963;42.666;23.366;2023-02-17T13:18:09;95674.44;;;16.37;24.93
40205;BME280;26963;42.666;23.366;2023-02-17T13:23:37;95655.75;;;16.50;23.68
40205;BME280;26963;42.666;23.366;2023-02-17T13:26:14;95629.38;;;16.46;24.12
40205;BME280;26963;42.666;23.366;2023-02-17T13:28:42;95661.41;;;16.71;25.55
40205;BME280;26963;42.666;23.366;2023-02-17T13:31:20;95664.91;;;16.80;24.96
40205;BME280;26963;42.666;23.366;2023-02-17T13:36:15;95648.53;;;16.76;23.39
40205;BME280;26963;42.666;23.366;2023-02-17T13:38:52;95649.19;;;16.73;23.45
40205;BME280;26963;42.666;23.366;2023-02-17T13:41:19;95646.47;;;16.73;23.37
40205;BME280;26963;42.666;23.366;2023-02-17T13:43:45;95642.78;;;16.69;23.29
40205;BME280;26963;42.666;23.366;2023-02-17T13:46:18;95594.38;;;16.33;23.24
40205;BME280;26963;42.666;23.366;2023-02-17T13:48:45;95633.53;;;16.53;22.72
40205;BME280;26963;42.666;23.366;2023-02-17T13:51:25;95647.66;;;16.50;23.06
40205;BME280;26963;42.666;23.366;2023-02-17T13:53:51;95634.09;;;16.32;22.63
40205;BME280;26963;42.666;23.366;2023-02-17T13:56:26;95584.22;;;15.98;22.71
40205;BME280;26963;42.666;23.366;2023-02-17T13:58:52;95577.19;;;15.88;22.88
40205;BME280;26963;42.666;23.366;2023-02-17T14:01:20;95638.63;;;16.14;21.46
40205;BME280;26963;42.666;23.366;2023-02-17T14:03:48;95631.97;;;15.89;21.81
40205;BME280;26963;42.666;23.366;2023-02-17T14:06:35;95655.19;;;15.98;22.11
40205;BME280;26963;42.666;23.366;2023-02-17T14:09:31;95635.28;;;15.86;21.83
40205;BME280;26963;42.666;23.366;2023-02-17T14:12:00;95637.38;;;15.89;22.04
40205;BME280;26963;42.666;23.366;2023-02-17T14:14:30;95585.81;;;15.45;22.72
40205;BME280;26963;42.666;23.366;2023-02-17T14:17:05;95517.88;;;14.89;23.40
40205;BME280;26963;42.666;23.366;2023-02-17T14:19:45;95599.47;;;15.26;23.69
40205;BME280;26963;42.666;23.366;2023-02-17T14:22:32;95650.09;;;15.52;24.06
40205;BME280;26963;42.666;23.366;2023-02-17T14:25:06;95643.97;;;15.37;24.46
40205;BME280;26963;42.666;23.366;2023-02-17T14:27:44;95657.56;;;15.32;24.72
40205;BME280;26963;42.666;23.366;2023-02-17T14:33:04;95587.53;;;14.67;25.41
40205;BME280;26963;42.666;23.366;2023-02-17T14:35:30;95594.22;;;14.70;25.45
40205;BME280;26963;42.666;23.366;2023-02-17T14:38:06;95659.69;;;15.07;25.23
40205;BME280;26963;42.666;23.366;2023-02-17T14:40:31;95653.84;;;15.05;25.82
40205;BME280;26963;42.666;23.366;2023-02-17T14:42:57;95655.56;;;15.01;25.97
40205;BME280;26963;42.666;23.366;2023-02-17T14:45:22;95600.22;;;14.67;26.08
40205;BME280;26963;42.666;23.366;2023-02-17T14:47:48;95560.72;;;14.34;25.93